Time;durP1;ratioP1;P1;durP2;ratioP2;P2;SDS_P1;SDS_P2;PMS_P1;PMS_P2;Temp;Humidity;BMP_temperature;BMP_pressure;BME280_temperature;BME280_humidity;BME280_pressure;Samples;Min_cycle;Max_cycle;Signal;HPM_P1;HPM_P2
2024/03/16 00:02:17;;;;;;;;;71.33;56.00;;;;;6.69;100.00;99602.78;6304735;20;2872382;-45
2024/03/16 00:04:46;;;;;;;;;80.33;64.33;;;;;6.67;100.00;99599.34;6305548;20;3627374;-46
2024/03/16 00:07:16;;;;;;;;;78.67;60.33;;;;;6.77;100.00;99599.78;6308070;20;3658183;-46
2024/03/16 00:09:46;;;;;;;;;75.67;58.00;;;;;6.64;100.00;99599.47;6276210;20;3639840;-47
2024/03/16 00:12:16;;;;;;;;;73.00;55.67;;;;;6.34;100.00;99596.41;6307823;20;3634628;-46
2024/03/16 00:14:48;;;;;;;;;65.67;50.33;;;;;6.62;100.00;99601.34;6307234;20;3634707;-47
2024/03/16 00:17:20;;;;;;;;;71.00;56.00;;;;;6.62;100.00;99593.34;6308847;20;2766027;-47
2024/03/16 00:19:50;;;;;;;;;72.00;55.33;;;;;6.80;100.00;99591.63;6272434;20;3636846;-45
2024/03/16 00:22:21;;;;;;;;;69.67;53.67;;;;;6.67;100.00;99588.66;6307097;20;3637155;-48
2024/03/16 00:24:50;;;;;;;;;69.00;54.67;;;;;6.61;100.00;99588.97;6307022;20;3619072;-46
2024/03/16 00:27:20;;;;;;;;;75.33;58.00;;;;;6.19;100.00;99586.44;6305580;20;3642026;-47
2024/03/16 00:29:50;;;;;;;;;74.33;56.00;;;;;6.18;100.00;99585.56;6307820;20;3643010;-45
2024/03/16 00:32:20;;;;;;;;;75.33;57.33;;;;;6.19;100.00;99587.31;6308685;20;3627415;-48
2024/03/16 00:34:50;;;;;;;;;74.33;56.00;;;;;6.18;100.00;99590.91;6306369;20;3640923;-46
2024/03/16 00:37:19;;;;;;;;;76.00;57.67;;;;;6.17;100.00;99583.88;6308637;20;3634670;-48
2024/03/16 00:39:49;;;;;;;;;75.00;56.67;;;;;5.88;100.00;99582.47;6304961;20;3640957;-45
2024/03/16 00:42:20;;;;;;;;;76.00;59.00;;;;;5.85;100.00;99587.94;6306740;20;3634661;-46
2024/03/16 00:44:49;;;;;;;;;78.33;59.00;;;;;5.58;100.00;99574.88;6306075;20;3635801;-46
2024/03/16 00:47:19;;;;;;;;;80.00;61.00;;;;;5.86;100.00;99576.34;6305534;20;3633598;-47
2024/03/16 00:49:48;;;;;;;;;74.67;56.67;;;;;6.35;100.00;99577.69;6307477;20;3633584;-48
2024/03/16 00:52:18;;;;;;;;;71.67;54.00;;;;;6.23;100.00;99577.38;6306753;20;3642989;-46
2024/03/16 00:54:47;;;;;;;;;70.33;51.33;;;;;5.71;100.00;99576.09;6305616;20;3630459;-46
2024/03/16 00:57:17;;;;;;;;;70.67;54.00;;;;;5.83;100.00;99581.78;6307614;20;3622123;-47
2024/03/16 00:59:47;;;;;;;;;64.67;53.33;;;;;6.08;100.00;99576.25;6305264;20;2874474;-47
2024/03/16 01:02:17;;;;;;;;;65.67;53.67;;;;;5.60;100.00;99572.13;6306214;20;3621103;-47
2024/03/16 01:04:47;;;;;;;;;65.33;52.33;;;;;5.63;100.00;99574.66;6303520;20;3623170;-46
2024/03/16 01:07:15;;;;;;;;;62.50;49.00;;;;;5.61;100.00;99566.75;6301350;20;2855582;-45
2024/03/16 01:09:45;;;;;;;;;66.67;51.00;;;;;5.53;100.00;99568.00;6277227;20;2881627;-46
2024/03/16 01:12:15;;;;;;;;;69.33;55.00;;;;;5.43;100.00;99565.75;6306651;20;3625249;-49
2024/03/16 01:14:44;;;;;;;;;71.00;55.00;;;;;5.37;100.00;99555.38;6304839;20;3635658;-49
2024/03/16 01:17:15;;;;;;;;;74.67;56.33;;;;;5.31;100.00;99557.41;6311460;20;3635662;-46
2024/03/16 01:19:44;;;;;;;;;76.00;56.00;;;;;5.33;100.00;99552.88;6310411;20;3644018;-47
2024/03/16 01:22:14;;;;;;;;;73.00;57.00;;;;;5.54;100.00;99556.44;6311835;20;3622126;-45
2024/03/16 01:24:44;;;;;;;;;72.33;55.00;;;;;5.54;100.00;99556.44;6309943;20;2888013;-48
2024/03/16 01:27:14;;;;;;;;;65.67;54.00;;;;;5.28;100.00;99547.75;6311980;20;2873229;-47
2024/03/16 01:29:43;;;;;;;;;72.33;55.00;;;;;5.36;100.00;99548.28;6311313;20;3639968;-45
2024/03/16 01:32:13;;;;;;;;;74.33;56.67;;;;;5.62;100.00;99555.16;6310786;20;3648230;-45
2024/03/16 01:34:42;;;;;;;;;76.33;57.33;;;;;5.81;100.00;99549.88;6308926;20;3641953;-45
2024/03/16 01:37:13;;;;;;;;;76.00;59.67;;;;;5.53;100.00;99546.69;6309731;20;3624203;-46
2024/03/16 01:39:44;;;;;;;;;76.00;56.00;;;;;5.71;100.00;99548.56;6309826;20;3632626;-46
2024/03/16 01:42:14;;;;;;;;;75.00;60.00;;;;;5.49;100.00;99549.50;6310337;20;3622212;-45
2024/03/16 01:45:17;;;;;;;;;75.00;58.67;;;;;5.06;100.00;99548.66;6308502;20;3629427;-47
2024/03/16 01:47:47;;;;;;;;;69.50;54.00;;;;;4.85;100.00;99552.19;6309969;20;2664974;-45
2024/03/16 01:50:20;;;;;;;;;67.33;53.33;;;;;4.81;100.00;99562.06;6311601;20;2870246;-45
2024/03/16 01:52:50;;;;;;;;;63.33;48.67;;;;;4.52;100.00;99554.38;6311399;20;2865975;-46
2024/03/16 01:55:20;;;;;;;;;59.67;46.00;;;;;4.87;100.00;99545.03;6309005;20;3618994;-48
2024/03/16 01:57:50;;;;;;;;;54.33;42.00;;;;;5.58;100.00;99555.34;6310260;20;3609637;-46
2024/03/16 02:00:20;;;;;;;;;57.67;47.00;;;;;5.44;100.00;99559.47;6308316;20;2861865;-49
2024/03/16 02:02:48;;;;;;;;;61.00;49.00;;;;;5.18;100.00;99559.69;6310728;20;2749321;-47
2024/03/16 02:05:17;;;;;;;;;56.00;44.00;;;;;5.62;100.00;99564.94;6306366;20;2862867;-48
2024/03/16 02:07:48;;;;;;;;;68.33;52.00;;;;;5.28;100.00;99566.38;6278671;20;2883670;-49
2024/03/16 02:10:18;;;;;;;;;62.33;49.33;;;;;4.80;100.00;99555.03;6310688;20;2862891;-47
2024/03/16 02:12:48;;;;;;;;;63.67;51.33;;;;;4.95;100.00;99552.66;6310232;20;2863900;-47
2024/03/16 02:15:18;;;;;;;;;67.67;50.67;;;;;4.94;100.00;99545.63;6305569;20;2883762;-52
2024/03/16 02:17:50;;;;;;;;;65.00;51.33;;;;;5.12;100.00;99538.69;6310155;20;2864889;-51
2024/03/16 02:20:20;;;;;;;;;67.67;54.00;;;;;5.52;100.00;99547.63;6307066;20;3612860;-50
2024/03/16 02:22:49;;;;;;;;;71.33;55.00;;;;;5.65;100.00;99562.16;6310992;20;3659636;-46
2024/03/16 02:25:19;;;;;;;;;73.33;54.33;;;;;5.37;100.00;99550.03;6307553;20;3653402;-46
2024/03/16 02:27:49;;;;;;;;;69.33;55.00;;;;;5.13;100.00;99553.72;6306256;20;2867019;-48
2024/03/16 02:30:19;;;;;;;;;69.33;54.00;;;;;5.30;100.00;99555.69;6308599;20;2885755;-47
2024/03/16 02:32:48;;;;;;;;;70.00;55.00;;;;;5.52;100.00;99560.94;6311103;20;2872235;-49
2024/03/16 02:35:18;;;;;;;;;68.67;55.00;;;;;5.46;100.00;99564.75;6307297;20;2876427;-49
2024/03/16 02:37:47;;;;;;;;;57.00;45.50;;;;;5.40;100.00;99557.88;6309511;20;2855497;-49
2024/03/16 02:40:17;;;;;;;;;68.67;52.33;;;;;5.57;100.00;99550.97;6278609;20;2890009;-48
2024/03/16 02:42:47;;;;;;;;;69.00;55.67;;;;;5.71;100.00;99557.44;6309620;20;3626311;-48
2024/03/16 02:45:17;;;;;;;;;76.00;57.33;;;;;5.92;100.00;99552.97;6308116;20;3644105;-48
2024/03/16 02:47:47;;;;;;;;;77.67;61.33;;;;;6.01;100.00;99562.38;6308050;20;2866045;-49
2024/03/16 02:50:17;;;;;;;;;83.33;60.67;;;;;6.06;100.00;99548.84;6310900;20;3652453;-49
2024/03/16 02:52:49;;;;;;;;;83.67;63.33;;;;;6.36;100.00;99568.75;6311011;20;3651341;-49
2024/03/16 02:55:18;;;;;;;;;73.67;56.00;;;;;6.47;100.00;99568.25;6307894;20;3614835;-47
2024/03/16 02:57:48;;;;;;;;;79.00;61.67;;;;;6.09;100.00;99570.88;6309033;20;3612845;-47
2024/03/16 03:00:18;;;;;;;;;72.33;55.00;;;;;5.82;100.00;99574.72;6307699;20;3628406;-47
2024/03/16 03:02:47;;;;;;;;;70.33;54.00;;;;;6.16;100.00;99574.13;6310467;20;3631498;-46
2024/03/16 03:05:20;;;;;;;;;68.00;53.00;;;;;5.80;100.00;99580.13;6305675;20;3638775;-47
2024/03/16 03:07:50;;;;;;;;;63.00;50.67;;;;;5.85;100.00;99567.47;6309222;20;2865997;-47
2024/03/16 03:10:21;;;;;;;;;68.00;51.33;;;;;6.48;100.00;99571.81;6308684;20;3639805;-47
2024/03/16 03:12:51;;;;;;;;;72.33;56.33;;;;;6.34;100.00;99575.09;6310599;20;3633666;-47
2024/03/16 03:15:21;;;;;;;;;74.00;55.67;;;;;6.27;100.00;99579.84;6306655;20;3647147;-50
2024/03/16 03:17:51;;;;;;;;;71.00;54.33;;;;;6.33;100.00;99568.88;6311381;20;3637750;-48
2024/03/16 03:20:23;;;;;;;;;73.33;59.00;;;;;6.38;100.00;99572.22;6308709;20;3621074;-46
2024/03/16 03:22:53;;;;;;;;;75.33;59.00;;;;;6.76;100.00;99576.66;6309808;20;3630524;-47
2024/03/16 03:25:22;;;;;;;;;71.67;54.67;;;;;6.52;100.00;99578.69;6307181;20;2878441;-45
2024/03/16 03:27:52;;;;;;;;;69.33;54.33;;;;;6.56;100.00;99582.97;6308202;20;3629728;-47
2024/03/16 03:30:22;;;;;;;;;72.00;56.00;;;;;7.03;100.00;99579.84;6308003;20;3633641;-46
2024/03/16 03:32:51;;;;;;;;;67.67;54.67;;;;;6.66;100.00;99581.59;6307498;20;3620117;-50
2024/03/16 03:35:21;;;;;;;;;69.33;55.67;;;;;7.13;100.00;99580.22;6306533;20;3620147;-48
2024/03/16 03:37:50;;;;;;;;;72.33;56.00;;;;;6.97;100.00;99574.78;6311853;20;3626357;-47
2024/03/16 03:40:19;;;;;;;;;73.00;56.00;;;;;6.91;100.00;99569.75;6276756;20;3635674;-46
2024/03/16 03:42:52;;;;;;;;;73.33;57.67;;;;;6.94;100.00;99569.59;6309681;20;3632261;-46
2024/03/16 03:45:27;;;;;;;;;78.33;57.33;;;;;6.90;100.00;99576.91;6308242;20;3661783;-48
2024/03/16 03:48:00;;;;;;;;;80.67;61.33;;;;;6.99;100.00;99580.91;6275684;20;3635785;-45
2024/03/16 03:50:32;;;;;;;;;90.67;72.33;;;;;7.24;100.00;99589.47;6306453;20;3671088;-48
2024/03/16 03:53:04;;;;;;;;;82.67;64.67;;;;;6.91;100.00;99591.97;6274542;20;3652360;-47
2024/03/16 03:55:33;;;;;;;;;75.33;58.00;;;;;6.20;100.00;99581.06;6272405;20;3641062;-46
2024/03/16 03:58:03;;;;;;;;;75.33;59.00;;;;;6.11;100.00;99578.81;6307248;20;3634737;-45
2024/03/16 04:00:33;;;;;;;;;85.67;61.00;;;;;5.94;100.00;99575.09;6306571;20;3644169;-47
2024/03/16 04:03:06;;;;;;;;;73.67;60.00;;;;;6.19;100.00;99584.66;6275392;20;2873303;-46
2024/03/16 04:05:36;;;;;;;;;82.33;62.00;;;;;6.17;100.00;99589.19;6305636;20;3648188;-46
2024/03/16 04:08:06;;;;;;;;;79.67;59.33;;;;;6.20;100.00;99582.84;6303441;20;3649296;-48
2024/03/16 04:10:37;;;;;;;;;78.67;60.00;;;;;6.30;100.00;99581.50;6275535;20;3642160;-47
2024/03/16 04:13:07;;;;;;;;;79.67;61.00;;;;;6.63;100.00;99584.38;6307539;20;3652813;-46
2024/03/16 04:15:37;;;;;;;;;74.67;60.67;;;;;6.72;100.00;99594.66;6304965;20;3616022;-47
2024/03/16 04:18:06;;;;;;;;;81.33;62.33;;;;;7.16;100.00;99596.09;6307543;20;3637816;-49
2024/03/16 04:20:36;;;;;;;;;81.00;61.00;;;;;7.23;100.00;99601.06;6308040;20;3639929;-47
2024/03/16 04:23:08;;;;;;;;;85.00;68.33;;;;;6.62;100.00;99603.16;6305964;20;3675250;-46
2024/03/16 04:25:36;;;;;;;;;83.67;63.33;;;;;6.37;100.00;99593.59;6288475;20;3635733;-45
2024/03/16 04:28:06;;;;;;;;;79.33;63.33;;;;;6.42;100.00;99598.72;6276172;20;3639953;-46
2024/03/16 04:30:36;;;;;;;;;84.67;61.67;;;;;6.32;100.00;99604.50;6308830;20;3647274;-46
2024/03/16 04:33:07;;;;;;;;;79.00;61.67;;;;;6.18;100.00;99596.25;6273732;20;3629461;-49
2024/03/16 04:35:37;;;;;;;;;87.00;67.67;;;;;6.50;100.00;99604.56;6306055;20;3676455;-47
2024/03/16 04:38:09;;;;;;;;;85.00;68.33;;;;;6.54;100.00;99598.19;6275804;20;3658611;-46
2024/03/16 04:40:38;;;;;;;;;84.67;66.33;;;;;6.63;100.00;99591.53;6277420;20;3664832;-47
2024/03/16 04:43:08;;;;;;;;;80.67;62.33;;;;;6.79;100.00;99590.75;6273564;20;3624208;-45
2024/03/16 04:45:38;;;;;;;;;86.67;64.00;;;;;7.04;100.00;99600.25;6304224;20;3660657;-46
2024/03/16 04:48:08;;;;;;;;;84.33;69.33;;;;;6.86;100.00;99593.97;6274354;20;3677323;-45
2024/03/16 04:50:37;;;;;;;;;91.00;71.67;;;;;6.79;100.00;99593.44;6277457;20;3682639;-48
2024/03/16 04:53:07;;;;;;;;;88.00;73.67;;;;;6.93;100.00;99589.22;6280825;20;3664933;-46
2024/03/16 04:55:37;;;;;;;;;90.33;76.67;;;;;6.56;100.00;99591.84;6278078;20;3681570;-45
2024/03/16 04:58:07;;;;;;;;;91.67;78.67;;;;;6.69;100.00;99588.56;6281132;20;3670057;-47
2024/03/16 05:00:38;;;;;;;;;90.75;75.75;;;;;6.88;100.00;99591.25;6281614;20;4429553;-47
2024/03/16 05:03:09;;;;;;;;;93.33;77.00;;;;;7.08;100.00;99588.47;6311484;20;3685783;-46
2024/03/16 05:05:39;;;;;;;;;89.00;70.67;;;;;6.83;100.00;99591.47;6278795;20;3676464;-46
2024/03/16 05:08:09;;;;;;;;;86.00;64.67;;;;;6.43;100.00;99595.16;6280293;20;3660680;-45
2024/03/16 05:10:38;;;;;;;;;88.33;68.00;;;;;6.45;100.00;99594.13;6278457;20;3682620;-48
2024/03/16 05:13:08;;;;;;;;;86.00;67.00;;;;;6.81;100.00;99591.53;6280584;20;3663818;-45
2024/03/16 05:15:38;;;;;;;;;89.67;74.00;;;;;6.75;100.00;99591.81;6276283;20;3679407;-49
2024/03/16 05:18:07;;;;;;;;;78.00;61.00;;;;;6.58;100.00;99589.06;6281082;20;3629414;-47
2024/03/16 05:20:37;;;;;;;;;86.00;69.00;;;;;7.08;100.00;99596.47;6313224;20;3668988;-47
2024/03/16 05:23:07;;;;;;;;;92.00;72.50;;;;;7.23;100.00;99598.38;6280434;20;4442939;-47
2024/03/16 05:25:37;;;;;;;;;87.00;74.33;;;;;7.35;100.00;99601.41;6309182;20;3665869;-46
2024/03/16 05:28:06;;;;;;;;;83.33;64.67;;;;;7.26;100.00;99598.22;6281126;20;3626309;-48
2024/03/16 05:30:37;;;;;;;;;81.00;63.33;;;;;7.31;100.00;99603.34;6309717;20;3625357;-47
2024/03/16 05:33:07;;;;;;;;;81.33;60.67;;;;;7.45;100.00;99602.66;6312945;20;3636725;-46
2024/03/16 05:35:40;;;;;;;;;82.67;63.00;;;;;6.92;100.00;99601.69;6308307;20;3659665;-47
2024/03/16 05:38:10;;;;;;;;;93.33;79.00;;;;;6.63;100.00;99605.72;6278182;20;3680465;-47
2024/03/16 05:40:43;;;;;;;;;87.33;75.00;;;;;7.14;100.00;99603.34;6279577;20;3657584;-46
2024/03/16 05:43:13;;;;;;;;;86.00;72.00;;;;;7.04;100.00;99598.44;6275929;20;3641957;-47
2024/03/16 05:45:43;;;;;;;;;90.67;70.67;;;;;7.14;100.00;99592.66;6275673;20;3689863;-48
2024/03/16 05:48:12;;;;;;;;;86.33;71.67;;;;;7.35;100.00;99593.41;6278207;20;3669042;-45
2024/03/16 05:50:42;;;;;;;;;87.33;73.00;;;;;7.32;100.00;99604.22;6279965;20;3672110;-50
2024/03/16 05:53:12;;;;;;;;;79.33;64.00;;;;;7.23;100.00;99603.72;6278298;20;3645072;-48
2024/03/16 05:55:42;;;;;;;;;85.00;64.33;;;;;7.90;100.00;99598.63;6308652;20;3670027;-47
2024/03/16 05:58:11;;;;;;;;;88.00;70.00;;;;;7.75;100.00;99604.75;6279373;20;3673147;-48
2024/03/16 06:00:41;;;;;;;;;84.00;68.67;;;;;7.63;100.00;99601.72;6277892;20;3672206;-46
2024/03/16 06:03:11;;;;;;;;;88.33;73.00;;;;;7.74;100.00;99597.66;6277468;20;3684627;-47
2024/03/16 06:05:43;;;;;;;;;89.67;73.67;;;;;8.27;100.00;99597.53;6278908;20;3682571;-46
2024/03/16 06:08:14;;;;;;;;;85.67;71.33;;;;;8.16;100.00;99589.19;6279350;20;3661811;-45
2024/03/16 06:10:43;;;;;;;;;86.00;70.33;;;;;8.16;100.00;99588.34;6278334;20;3678842;-47
2024/03/16 06:13:13;;;;;;;;;72.00;59.00;;;;;8.00;100.00;99594.47;6279003;20;2867051;-48
2024/03/16 06:15:43;;;;;;;;;82.33;67.00;;;;;7.99;100.00;99594.59;6308922;20;3661711;-46
2024/03/16 06:18:13;;;;;;;;;76.33;59.67;;;;;7.89;100.00;99604.88;6279249;20;3624321;-50
2024/03/16 06:20:43;;;;;;;;;75.67;58.33;;;;;8.21;100.00;99605.00;6309336;20;3623181;-47
2024/03/16 06:23:12;;;;;;;;;75.33;60.00;;;;;8.20;100.00;99605.97;6308666;20;3609652;-47
2024/03/16 06:25:49;;;;;;;;;77.00;59.67;;;;;7.97;100.00;99612.50;6305349;20;3625254;-47
2024/03/16 06:28:21;;;;;;;;;73.33;59.33;;;;;8.52;100.00;99612.28;6311060;20;2861826;-46
2024/03/16 06:30:59;;;;;;;;;74.67;57.33;;;;;8.25;100.00;99612.78;6312439;20;3595058;-48
2024/03/16 06:33:32;;;;;;;;;74.33;57.33;;;;;8.38;100.00;99615.69;6311290;20;3601378;-47
2024/03/16 06:36:03;;;;;;;;;74.67;57.00;;;;;9.11;99.04;99618.81;6309946;20;3647196;-47
2024/03/16 06:38:32;;;;;;;;;70.00;55.00;;;;;8.78;99.47;99618.88;6309859;20;3628388;-48
2024/03/16 06:41:02;;;;;;;;;69.33;54.00;;;;;9.16;99.47;99623.88;6308619;20;3613813;-49
2024/03/16 06:43:32;;;;;;;;;72.33;55.67;;;;;8.54;100.00;99611.25;6307227;20;3646091;-50
2024/03/16 06:46:05;;;;;;;;;73.67;56.00;;;;;9.22;100.00;99623.56;6310817;20;3619004;-44
2024/03/16 06:48:35;;;;;;;;;74.67;57.33;;;;;9.16;100.00;99630.13;6309256;20;3626350;-47
2024/03/16 06:51:04;;;;;;;;;71.00;53.33;;;;;8.56;100.00;99628.09;6311938;20;3638839;-45
2024/03/16 06:53:32;;;;;;;;;67.00;50.67;;;;;9.29;98.97;99638.31;6279999;20;3638791;-46
2024/03/16 06:56:04;;;;;;;;;66.00;53.33;;;;;9.19;98.45;99642.50;6278981;20;3619141;-47
2024/03/16 06:58:33;;;;;;;;;69.67;54.00;;;;;9.32;97.64;99635.47;6308946;20;3617952;-46
2024/03/16 07:01:04;;;;;;;;;71.00;53.33;;;;;9.00;98.81;99648.88;6309165;20;3635746;-47
2024/03/16 07:03:34;;;;;;;;;68.33;52.67;;;;;9.06;98.51;99649.47;6307686;20;3613982;-49
2024/03/16 07:06:02;;;;;;;;;73.00;55.00;;;;;8.38;100.00;99647.78;6312564;20;3637742;-46
2024/03/16 07:08:33;;;;;;;;;70.00;57.33;;;;;8.70;100.00;99654.09;6278563;20;2870159;-47
2024/03/16 07:11:03;;;;;;;;;62.33;51.00;;;;;9.02;100.00;99657.66;6308514;20;2874347;-48
2024/03/16 07:13:32;;;;;;;;;64.00;51.67;;;;;8.93;99.24;99660.88;6312034;20;3615877;-46
2024/03/16 07:16:02;;;;;;;;;66.67;53.67;;;;;9.18;99.12;99671.06;6277882;20;3618998;-46
2024/03/16 07:18:32;;;;;;;;;69.00;54.67;;;;;8.86;100.00;99666.66;6310120;20;2851373;-46
2024/03/16 07:21:02;;;;;;;;;68.00;54.00;;;;;8.62;100.00;99668.84;6308422;20;2876480;-48
2024/03/16 07:23:32;;;;;;;;;68.00;52.33;;;;;8.65;100.00;99671.34;6309811;20;3608652;-46
2024/03/16 07:26:02;;;;;;;;;69.33;53.67;;;;;8.69;100.00;99675.56;6309174;20;2867036;-47
2024/03/16 07:28:32;;;;;;;;;66.00;51.33;;;;;8.81;100.00;99672.25;6310578;20;3615884;-49
2024/03/16 07:31:05;;;;;;;;;61.67;50.00;;;;;8.98;100.00;99674.88;6310818;20;3614899;-45
2024/03/16 07:33:35;;;;;;;;;66.00;52.33;;;;;9.08;99.50;99669.84;6311757;20;3610738;-47
2024/03/16 07:36:05;;;;;;;;;67.00;53.00;;;;;9.75;96.69;99675.88;6309813;20;3621135;-47
2024/03/16 07:38:34;;;;;;;;;65.33;51.33;;;;;9.95;92.00;99688.09;6312057;20;3629437;-46
2024/03/16 07:41:04;;;;;;;;;69.00;53.00;;;;;10.40;89.03;99683.69;6280286;20;3639926;-47
2024/03/16 07:43:33;;;;;;;;;63.33;50.33;;;;;10.59;85.44;99686.09;6277618;20;3619011;-47
2024/03/16 07:46:04;;;;;;;;;62.33;50.00;;;;;10.03;87.22;99679.59;6311623;20;3629817;-47
2024/03/16 07:48:35;;;;;;;;;59.00;45.67;;;;;10.16;89.86;99683.28;6308344;20;3644006;-48
2024/03/16 07:51:05;;;;;;;;;63.25;49.00;;;;;10.31;88.35;99689.59;6311710;20;3633676;-49
2024/03/16 07:53:34;;;;;;;;;64.00;51.00;;;;;10.17;87.19;99689.53;6309895;20;3633645;-46
2024/03/16 07:56:04;;;;;;;;;61.33;48.67;;;;;10.84;85.20;99695.28;6311007;20;3616067;-50
2024/03/16 07:58:34;;;;;;;;;59.00;48.67;;;;;11.21;83.18;99689.31;6277380;20;3605548;-47
2024/03/16 08:01:04;;;;;;;;;64.00;52.00;;;;;11.27;81.99;99696.13;6308916;20;2863333;-46
2024/03/16 08:03:33;;;;;;;;;60.67;49.00;;;;;11.27;82.89;99689.88;6309346;20;3614931;-46
2024/03/16 08:06:07;;;;;;;;;62.67;48.33;;;;;11.33;82.65;99694.88;6280572;20;3628379;-47
2024/03/16 08:08:37;;;;;;;;;66.25;50.25;;;;;10.56;86.60;99694.34;6310583;20;3637801;-47
2024/03/16 08:11:09;;;;;;;;;75.25;62.50;;;;;11.12;84.22;99692.59;6310587;20;4407563;-47
2024/03/16 08:13:38;;;;;;;;;71.00;55.00;;;;;11.00;85.25;99690.69;6310973;20;3620101;-47
2024/03/16 08:16:07;;;;;;;;;55.67;45.00;;;;;10.58;87.89;99686.16;6277905;20;2861879;-47
2024/03/16 08:18:37;;;;;;;;;64.33;50.33;;;;;10.61;89.06;99684.19;6309142;20;3642045;-48
2024/03/16 08:21:07;;;;;;;;;64.33;49.33;;;;;10.87;87.83;99692.41;6310036;20;3640899;-48
2024/03/16 08:23:37;;;;;;;;;57.33;46.33;;;;;10.48;89.20;99702.00;6308613;20;3622342;-45
2024/03/16 08:26:07;;;;;;;;;61.00;48.00;;;;;10.60;90.15;99701.22;6305956;20;3618005;-48
2024/03/16 08:28:36;;;;;;;;;62.67;50.00;;;;;10.90;88.51;99694.91;6309016;20;3620072;-46
2024/03/16 08:31:05;;;;;;;;;58.00;48.33;;;;;10.95;87.11;99706.22;6309016;20;3605509;-46
2024/03/16 08:33:35;;;;;;;;;57.00;45.67;;;;;11.09;86.37;99708.91;6278346;20;3624246;-46
2024/03/16 08:36:05;;;;;;;;;99.00;94.75;;;;;10.73;89.90;99712.94;6310533;20;4428450;-45
2024/03/16 08:38:34;;;;;;;;;68.00;52.00;;;;;10.66;97.29;99711.56;6310393;20;3628792;-46
2024/03/16 08:41:04;;;;;;;;;58.67;47.00;;;;;10.27;96.40;99707.69;6276471;20;3589846;-47
2024/03/16 08:43:33;;;;;;;;;63.33;51.00;;;;;10.86;99.74;99704.97;6312154;20;3625372;-46
2024/03/16 08:46:05;;;;;;;;;61.67;50.67;;;;;11.42;96.54;99707.69;6278853;20;3598151;-47
2024/03/16 08:48:35;;;;;;;;;63.00;49.00;;;;;11.33;99.31;99709.16;6277094;20;3635708;-45
2024/03/16 08:51:04;;;;;;;;;66.00;52.33;;;;;11.49;92.84;99710.88;6310419;20;3597264;-46
2024/03/16 08:53:34;;;;;;;;;66.67;52.00;;;;;11.58;94.77;99705.72;6273869;20;2867173;-47
2024/03/16 08:56:06;;;;;;;;;61.33;47.67;;;;;11.61;93.39;99697.50;6311293;20;3619016;-50
2024/03/16 08:58:35;;;;;;;;;58.00;47.33;;;;;11.58;95.02;99700.34;6278093;20;3614869;-52
2024/03/16 09:01:05;;;;;;;;;57.67;47.00;;;;;11.46;94.70;99706.56;6275775;20;2861994;-52
2024/03/16 09:03:34;;;;;;;;;55.67;44.67;;;;;11.25;96.88;99702.56;6310008;20;3623171;-50
2024/03/16 09:06:04;;;;;;;;;57.67;46.33;;;;;11.24;93.53;99711.56;6275396;20;3623295;-48
2024/03/16 09:08:34;;;;;;;;;55.67;45.67;;;;;11.38;93.98;99716.94;6307072;20;3616955;-48
2024/03/16 09:11:03;;;;;;;;;56.67;44.67;;;;;11.11;94.99;99712.38;6310165;20;3607634;-46
2024/03/16 09:13:33;;;;;;;;;61.67;48.00;;;;;10.42;100.00;99713.94;6276942;20;3635793;-49
2024/03/16 09:16:05;;;;;;;;;61.33;47.00;;;;;10.95;100.00;99708.91;6308093;20;3637755;-50
2024/03/16 09:18:36;;;;;;;;;57.67;46.67;;;;;10.77;100.00;99717.16;6272649;20;3626326;-48
2024/03/16 09:21:07;;;;;;;;;61.00;48.67;;;;;10.43;100.00;99713.00;6308373;20;3616013;-47
2024/03/16 09:23:37;;;;;;;;;56.67;44.33;;;;;10.40;100.00;99715.00;6274921;20;3616949;-46
2024/03/16 09:26:07;;;;;;;;;59.33;47.67;;;;;11.11;99.20;99723.13;6305941;20;3615911;-51
2024/03/16 09:28:36;;;;;;;;;59.67;46.33;;;;;11.14;96.01;99717.56;6308514;20;3623312;-49
2024/03/16 09:31:10;;;;;;;;;60.67;46.33;;;;;11.27;99.67;99722.13;6276995;20;3622189;-49
2024/03/16 09:33:40;;;;;;;;;60.67;47.67;;;;;11.27;97.77;99724.81;6306905;20;3631499;-45
2024/03/16 09:36:09;;;;;;;;;60.00;47.00;;;;;11.41;94.50;99725.66;6310637;20;3618021;-45
2024/03/16 09:38:38;;;;;;;;;58.33;47.33;;;;;11.24;97.58;99730.38;6281741;20;3621116;-47
2024/03/16 09:41:19;;;;;;;;;55.67;46.00;;;;;11.13;97.27;99734.63;6312537;20;2849303;-45
2024/03/16 09:43:49;;;;;;;;;53.67;44.00;;;;;10.73;100.00;99733.56;6311587;20;2853621;-46
2024/03/16 09:46:18;;;;;;;;;62.67;47.67;;;;;10.83;100.00;99723.97;6311091;20;3611866;-46
2024/03/16 09:48:46;;;;;;;;;62.00;49.67;;;;;10.31;100.00;99722.66;6306787;20;3619045;-49
2024/03/16 09:51:15;;;;;;;;;63.50;51.00;;;;;9.91;100.00;99717.91;6311697;20;2756717;-48
2024/03/16 09:53:43;;;;;;;;;68.00;52.00;;;;;10.01;100.00;99713.72;6311999;20;3619034;-49
2024/03/16 09:56:16;;;;;;;;;64.00;51.67;;;;;10.08;100.00;99713.28;6276154;20;2863906;-49
2024/03/16 09:58:44;;;;;;;;;64.67;52.00;;;;;9.94;100.00;99720.38;6312691;20;3612784;-46
2024/03/16 10:01:15;;;;;;;;;67.00;53.00;;;;;10.29;100.00;99713.84;6279896;20;3617071;-47
2024/03/16 10:03:44;;;;;;;;;67.67;56.00;;;;;10.49;100.00;99719.81;6307748;20;3605523;-46
2024/03/16 10:06:15;;;;;;;;;66.33;51.00;;;;;10.44;100.00;99719.22;6270312;20;3634725;-46
2024/03/16 10:08:44;;;;;;;;;66.00;53.00;;;;;10.76;100.00;99717.25;6305535;20;2867162;-45
2024/03/16 10:11:14;;;;;;;;;71.75;59.50;;;;;10.68;100.00;99725.78;6311671;20;3659121;-49
2024/03/16 10:13:58;;;;;;;;;77.00;64.00;;;;;11.02;100.00;99722.84;6308297;20;4421073;-46
2024/03/16 10:16:26;;;;;;;;;72.00;59.67;;;;;11.02;100.00;99723.69;6310028;20;3637791;-49
2024/03/16 10:18:55;;;;;;;;;62.67;48.33;;;;;11.42;100.00;99723.84;6277956;20;2855664;-46
2024/03/16 10:21:22;;;;;;;;;63.33;52.33;;;;;11.04;100.00;99719.09;6312062;20;3595045;-46
2024/03/16 10:23:53;;;;;;;;;61.00;49.00;;;;;11.30;100.00;99727.34;6275026;20;3620145;-46
2024/03/16 10:26:20;;;;;;;;;58.33;47.33;;;;;10.93;100.00;99729.66;6308351;20;3606515;-48
2024/03/16 10:28:52;;;;;;;;;64.67;50.00;;;;;11.18;100.00;99724.44;6274296;20;3633691;-46
2024/03/16 10:31:22;;;;;;;;;60.33;50.00;;;;;11.52;100.00;99724.97;6308021;20;3616055;-45
2024/03/16 10:33:50;;;;;;;;;54.33;44.67;;;;;11.46;100.00;99728.06;6306683;20;2858776;-48
2024/03/16 10:36:18;;;;;;;;;57.33;45.67;;;;;11.70;100.00;99716.69;6305517;20;3634670;-48
2024/03/16 10:38:50;;;;;;;;;56.00;44.00;;;;;11.83;100.00;99714.91;6308528;20;3599325;-46
2024/03/16 10:41:19;;;;;;;;;52.33;44.00;;;;;11.91;100.00;99709.91;6274086;20;3615907;-46
2024/03/16 10:43:47;;;;;;;;;53.33;44.00;;;;;11.71;100.00;99715.69;6308481;20;3614990;-49
2024/03/16 10:46:16;;;;;;;;;55.00;44.00;;;;;11.57;100.00;99719.31;6303920;20;3607690;-50
2024/03/16 10:48:45;;;;;;;;;55.33;45.00;;;;;11.83;100.00;99714.91;6303857;20;2854714;-49
2024/03/16 10:51:18;;;;;;;;;58.00;46.33;;;;;11.88;100.00;99715.50;6306589;20;3626317;-47
2024/03/16 10:53:47;;;;;;;;;55.33;46.33;;;;;12.11;100.00;99718.44;6275010;20;3629572;-46
2024/03/16 10:56:16;;;;;;;;;58.67;48.33;;;;;11.63;100.00;99718.88;6308366;20;3615865;-46
2024/03/16 10:58:44;;;;;;;;;60.00;48.33;;;;;12.24;100.00;99717.53;6277761;20;3620045;-47
2024/03/16 11:01:18;;;;;;;;;64.00;50.67;;;;;12.35;100.00;99724.00;6273778;20;3618062;-47
2024/03/16 11:03:47;;;;;;;;;58.00;48.00;;;;;12.82;99.44;99726.13;6305741;20;3605503;-47
2024/03/16 11:06:23;;;;;;;;;64.33;52.33;;;;;12.24;100.00;99716.66;6272721;20;3617035;-50
2024/03/16 11:08:52;;;;;;;;;63.67;49.33;;;;;12.27;100.00;99713.78;6308599;20;3615947;-47
2024/03/16 11:11:26;;;;;;;;;66.33;53.67;;;;;11.79;100.00;99716.06;6274440;20;3613827;-48
2024/03/16 11:14:11;;;;;;;;;64.67;53.00;;;;;11.59;100.00;99712.00;6273702;20;3611838;-48
2024/03/16 11:16:52;;;;;;;;;68.67;57.67;;;;;11.73;100.00;99709.25;6307212;20;3621148;-46